Time,TemperatureF,DewpointF,PressureIn,WindDirection,WindDirectionDegrees,WindSpeedMPH,WindSpeedGustMPH,Humidity,HourlyPrecipIn,Conditions,Clouds,dailyrainin,SoftwareType,DateUTC
2013-07-07 00:00:00,74.3,72.8,30.13,SW,235,0.0,0.0,95,0.00,,FEW050,0.00,VWS V14.01,2013-07-07 04:00:00,
2013-07-07 00:01:00,74.2,72.7,30.13,SW,235,0.0,0.0,95,0.00,,FEW050,0.00,VWS V14.01,2013-07-07 04:01:00,
2013-07-07 00:02:00,74.2,72.7,30.13,SW,235,0.0,0.0,95,0.00,,FEW050,0.00,VWS V14.01,2013-07-07 04:02:00,
2013-07-07 00:07:00,74.1,72.6,30.13,SW,234,0.0,0.0,95,0.00,,,0.00,VWS V14.01,2013-07-07 04:07:00,
2013-07-07 00:12:00,74.0,72.5,30.13,SW,234,0.0,0.0,95,0.00,,,0.00,VWS V14.01,2013-07-07 04:12:00,
2013-07-07 00:17:00,73.9,72.4,30.12,SW,234,0.0,0.0,95,0.00,,,0.00,VWS V14.01,2013-07-07 04:17:00,
2013-07-07 00:22:00,73.8,72.6,30.13,SW,234,0.0,0.0,96,0.00,,,0.00,VWS V14.01,2013-07-07 04:22:00,
2013-07-07 00:27:00,73.8,72.6,30.12,SW,234,0.0,0.0,96,0.00,,,0.00,VWS V14.01,2013-07-07 04:27:00,
2013-07-07 00:32:00,73.7,72.5,30.12,SW,234,0.0,0.0,96,0.00,,,0.00,VWS V14.01,2013-07-07 04:32:00,
2013-07-07 00:37:00,73.6,72.4,30.12,SW,234,0.0,0.0,96,0.00,,,0.00,VWS V14.01,2013-07-07 04:37:00,
2013-07-07 00:42:00,73.5,72.3,30.12,SW,234,0.0,0.0,96,0.00,,,0.00,VWS V14.01,2013-07-07 04:42:00,
2013-07-07 00:47:00,73.5,72.3,30.12,SW,234,0.0,0.0,96,0.00,,,0.00,VWS V14.01,2013-07-07 04:47:00,
2013-07-07 00:52:00,73.4,72.2,30.12,SW,234,0.0,0.0,96,0.00,,,0.00,VWS V14.01,2013-07-07 04:52:00,
2013-07-07 00:57:00,73.3,72.1,30.12,SW,234,0.0,0.0,96,0.00,,,0.00,VWS V14.01,2013-07-07 04:57:00,
2013-07-07 01:02:00,73.3,72.4,30.12,SW,234,0.0,0.0,97,0.00,,,0.00,VWS V14.01,2013-07-07 05:02:00,
2013-07-07 01:07:00,73.2,72.3,30.12,SW,234,0.0,0.0,97,0.00,,,0.00,VWS V14.01,2013-07-07 05:07:00,
2013-07-07 01:12:00,73.2,72.3,30.12,SW,234,0.0,0.0,97,0.00,,,0.00,VWS V14.01,2013-07-07 05:12:00,
2013-07-07 01:17:00,73.1,72.2,30.12,SW,234,0.0,0.0,97,0.00,,,0.00,VWS V14.01,2013-07-07 05:17:00,
2013-07-07 01:22:00,73.0,72.1,30.12,SW,233,0.0,0.0,97,0.00,,,0.00,VWS V14.01,2013-07-07 05:22:00,
2013-07-07 01:27:00,73.0,72.1,30.12,SW,233,0.0,0.0,97,0.00,,,0.00,VWS V14.01,2013-07-07 05:27:00,
2013-07-07 01:32:00,73.0,72.1,30.12,SW,233,0.0,0.0,97,0.00,,,0.00,VWS V14.01,2013-07-07 05:32:00,
2013-07-07 01:37:00,72.9,72.3,30.11,SW,233,0.0,0.0,98,0.00,,,0.00,VWS V14.01,2013-07-07 05:37:00,
2013-07-07 01:42:00,72.9,72.3,30.11,SW,233,0.0,0.0,98,0.00,,,0.00,VWS V14.01,2013-07-07 05:42:00,
2013-07-07 01:47:00,72.8,72.2,30.11,SW,233,0.0,0.0,98,0.00,,,0.00,VWS V14.01,2013-07-07 05:47:00,
2013-07-07 01:52:00,72.7,71.8,30.11,SW,232,0.0,0.0,97,0.00,,,0.00,VWS V14.01,2013-07-07 05:52:00,
2013-07-07 01:57:00,72.6,72.0,30.11,SW,232,0.0,0.0,98,0.00,,,0.00,VWS V14.01,2013-07-07 05:57:00,
2013-07-07 02:02:00,72.7,72.1,30.11,SW,232,0.0,0.0,98,0.00,,,0.00,VWS V14.01,2013-07-07 06:02:00,
2013-07-07 02:07:00,72.7,72.1,30.11,SW,232,0.0,2.0,98,0.00,,,0.00,VWS V14.01,2013-07-07 06:07:00,
2013-07-07 02:12:00,72.6,72.0,30.11,SW,232,0.0,2.0,98,0.00,,,0.00,VWS V14.01,2013-07-07 06:12:00,
2013-07-07 02:17:00,72.6,72.0,30.11,SW,232,0.0,2.0,98,0.00,,,0.00,VWS V14.01,2013-07-07 06:17:00,
2013-07-07 02:22:00,72.6,72.0,30.11,SW,232,0.0,2.0,98,0.00,,,0.00,VWS V14.01,2013-07-07 06:22:00,
2013-07-07 02:27:00,72.6,72.3,30.10,SW,232,0.0,2.0,99,0.00,,,0.00,VWS V14.01,2013-07-07 06:27:00,
2013-07-07 02:33:00,72.5,72.2,30.10,SW,231,0.0,1.0,99,0.00,,,0.00,VWS V14.01,2013-07-07 06:33:00,
2013-07-07 02:38:00,72.5,71.9,30.10,SW,231,0.0,1.0,98,0.00,,,0.00,VWS V14.01,2013-07-07 06:38:00,
2013-07-07 02:43:00,72.4,71.8,30.10,SW,230,0.0,1.0,98,0.00,,,0.00,VWS V14.01,2013-07-07 06:43:00,
2013-07-07 02:48:00,72.3,71.7,30.10,SW,228,0.0,1.0,98,0.00,,,0.00,VWS V14.01,2013-07-07 06:48:00,
2013-07-07 02:53:00,72.2,71.6,30.10,SW,235,0.0,1.0,98,0.00,,,0.00,VWS V14.01,2013-07-07 06:53:00,
2013-07-07 02:58:00,72.1,71.5,30.10,SW,235,0.0,1.0,98,0.00,,,0.00,VWS V14.01,2013-07-07 06:58:00,
2013-07-07 03:03:00,72.0,71.4,30.10,SW,235,0.0,0.0,98,0.00,,CLR,0.00,VWS V14.01,2013-07-07 07:03:00,
2013-07-07 03:08:00,72.0,71.7,30.10,SW,235,0.0,0.0,99,0.00,,CLR,0.00,VWS V14.01,2013-07-07 07:08:00,
2013-07-07 03:13:00,72.0,71.7,30.10,SW,235,0.0,0.0,99,0.00,,CLR,0.00,VWS V14.01,2013-07-07 07:13:00,
2013-07-07 03:18:00,71.9,71.6,30.10,SW,235,0.0,0.0,99,0.00,,CLR,0.00,VWS V14.01,2013-07-07 07:18:00,
2013-07-07 03:23:00,71.7,71.4,30.10,SW,235,0.0,0.0,99,0.00,,CLR,0.00,VWS V14.01,2013-07-07 07:23:00,
2013-07-07 03:28:00,71.7,71.4,30.10,SW,235,0.0,0.0,99,0.00,,CLR,0.00,VWS V14.01,2013-07-07 07:28:00,
2013-07-07 03:33:00,71.6,71.3,30.10,SW,235,0.0,0.0,99,0.00,,CLR,0.00,VWS V14.01,2013-07-07 07:33:00,
2013-07-07 03:38:00,71.5,71.2,30.09,SW,235,0.0,0.0,99,0.00,,CLR,0.00,VWS V14.01,2013-07-07 07:38:00,
2013-07-07 03:43:00,71.4,71.1,30.09,SW,235,0.0,0.0,99,0.00,,CLR,0.00,VWS V14.01,2013-07-07 07:43:00,
2013-07-07 03:48:00,71.4,71.1,30.09,SW,235,0.0,0.0,99,0.00,,CLR,0.00,VWS V14.01,2013-07-07 07:48:00,
2013-07-07 03:53:00,71.3,71.0,30.09,SW,235,0.0,0.0,99,0.00,,CLR,0.00,VWS V14.01,2013-07-07 07:53:00,
2013-07-07 03:58:00,71.3,71.0,30.09,SW,235,0.0,0.0,99,0.00,,CLR,0.00,VWS V14.01,2013-07-07 07:58:00,
2013-07-07 04:03:00,71.2,70.9,30.09,SW,235,0.0,0.0,99,0.00,,CLR,0.00,VWS V14.01,2013-07-07 08:03:00,
2013-07-07 04:08:00,71.1,70.8,30.09,SW,235,0.0,0.0,99,0.00,,CLR,0.00,VWS V14.01,2013-07-07 08:08:00,
2013-07-07 04:13:00,71.0,70.7,30.09,SW,235,0.0,0.0,99,0.00,,CLR,0.00,VWS V14.01,2013-07-07 08:13:00,
2013-07-07 04:18:00,71.0,70.7,30.09,SW,235,0.0,0.0,99,0.00,,CLR,0.00,VWS V14.01,2013-07-07 08:18:00,
2013-07-07 04:23:00,71.0,70.7,30.09,SW,235,0.0,0.0,99,0.00,,CLR,0.00,VWS V14.01,2013-07-07 08:23:00,
2013-07-07 04:28:00,70.9,70.6,30.09,SW,235,0.0,0.0,99,0.00,,CLR,0.00,VWS V14.01,2013-07-07 08:28:00,
2013-07-07 04:33:00,71.0,70.7,30.09,SW,235,0.0,0.0,99,0.00,,CLR,0.00,VWS V14.01,2013-07-07 08:33:00,
2013-07-07 04:38:00,70.9,70.9,30.09,SW,235,0.0,0.0,100,0.00,,CLR,0.00,VWS V14.01,2013-07-07 08:38:00,
2013-07-07 04:43:00,70.8,70.5,30.09,SW,235,0.0,0.0,99,0.00,,CLR,0.00,VWS V14.01,2013-07-07 08:43:00,
2013-07-07 04:48:00,70.7,70.4,30.09,SW,235,0.0,0.0,99,0.00,,CLR,0.00,VWS V14.01,2013-07-07 08:48:00,
2013-07-07 04:53:00,70.7,70.7,30.09,SW,235,0.0,0.0,100,0.00,,CLR,0.00,VWS V14.01,2013-07-07 08:53:00,
2013-07-07 04:58:00,70.6,70.6,30.10,SW,235,0.0,0.0,100,0.00,,CLR,0.00,VWS V14.01,2013-07-07 08:58:00,
2013-07-07 05:04:00,70.5,70.5,30.10,SW,235,0.0,0.0,100,0.00,,CLR,0.00,VWS V14.01,2013-07-07 09:04:00,
2013-07-07 05:09:00,70.4,70.4,30.10,SW,235,0.0,0.0,100,0.00,,CLR,0.00,VWS V14.01,2013-07-07 09:09:00,
2013-07-07 05:14:00,70.4,70.4,30.10,SW,235,0.0,0.0,100,0.00,,CLR,0.00,VWS V14.01,2013-07-07 09:14:00,
2013-07-07 05:19:00,70.3,70.3,30.10,SW,235,0.0,0.0,100,0.00,,CLR,0.00,VWS V14.01,2013-07-07 09:19:00,
2013-07-07 05:24:00,70.2,70.2,30.10,SW,235,0.0,0.0,100,0.00,,CLR,0.00,VWS V14.01,2013-07-07 09:24:00,
2013-07-07 05:29:00,70.2,70.2,30.10,SW,235,0.0,0.0,100,0.00,,CLR,0.00,VWS V14.01,2013-07-07 09:29:00,
2013-07-07 05:34:00,70.1,70.1,30.10,SW,235,0.0,0.0,100,0.00,,CLR,0.00,VWS V14.01,2013-07-07 09:34:00,
2013-07-07 05:39:00,70.1,69.8,30.10,SW,235,0.0,0.0,99,0.00,,CLR,0.00,VWS V14.01,2013-07-07 09:39:00,
2013-07-07 05:44:00,70.0,70.0,30.10,SW,235,0.0,0.0,100,0.00,,CLR,0.00,VWS V14.01,2013-07-07 09:44:00,
2013-07-07 05:49:00,70.0,70.0,30.10,SW,235,0.0,0.0,100,0.00,,CLR,0.00,VWS V14.01,2013-07-07 09:49:00,
2013-07-07 05:54:00,69.9,69.9,30.10,SW,235,0.0,0.0,100,0.00,,CLR,0.00,VWS V14.01,2013-07-07 09:54:00,
2013-07-07 05:59:00,69.9,69.9,30.10,SW,235,0.0,0.0,100,0.00,,CLR,0.00,VWS V14.01,2013-07-07 09:59:00,
2013-07-07 06:04:00,69.9,69.9,30.10,SW,235,0.0,0.0,100,0.00,,CLR,0.00,VWS V14.01,2013-07-07 10:04:00,
2013-07-07 06:09:00,69.9,69.9,30.10,SW,235,0.0,0.0,100,0.00,,CLR,0.00,VWS V14.01,2013-07-07 10:09:00,
2013-07-07 06:14:00,69.9,69.9,30.11,SW,235,0.0,0.0,100,0.00,,CLR,0.00,VWS V14.01,2013-07-07 10:14:00,
2013-07-07 06:19:00,69.9,69.9,30.10,SW,235,0.0,0.0,100,0.00,,CLR,0.00,VWS V14.01,2013-07-07 10:19:00,
2013-07-07 06:24:00,70.0,70.0,30.10,SW,235,0.0,0.0,100,0.00,,CLR,0.00,VWS V14.01,2013-07-07 10:24:00,
2013-07-07 06:29:00,70.1,70.1,30.10,SW,235,0.0,0.0,100,0.00,,CLR,0.00,VWS V14.01,2013-07-07 10:29:00,
2013-07-07 06:34:00,70.1,70.1,30.10,SW,235,0.0,0.0,100,0.00,,CLR,0.00,VWS V14.01,2013-07-07 10:34:00,
2013-07-07 06:39:00,70.3,70.3,30.10,SW,235,0.0,0.0,100,0.00,,CLR,0.00,VWS V14.01,2013-07-07 10:39:00,
2013-07-07 06:44:00,70.3,70.3,30.10,SW,235,0.0,0.0,100,0.00,,CLR,0.00,VWS V14.01,2013-07-07 10:44:00,
2013-07-07 06:49:00,70.6,70.6,30.10,SW,235,0.0,0.0,100,0.00,,CLR,0.00,VWS V14.01,2013-07-07 10:49:00,
2013-07-07 06:54:00,70.9,70.9,30.10,SW,235,0.0,0.0,100,0.00,,CLR,0.00,VWS V14.01,2013-07-07 10:54:00,
2013-07-07 06:59:00,71.2,71.2,30.10,SW,235,0.0,0.0,100,0.00,,CLR,0.00,VWS V14.01,2013-07-07 10:59:00,
2013-07-07 07:04:00,71.6,71.6,30.10,SW,235,0.0,0.0,100,0.00,,CLR,0.00,VWS V14.01,2013-07-07 11:04:00,
2013-07-07 07:09:00,71.9,71.9,30.10,SW,235,0.0,0.0,100,0.00,,CLR,0.00,VWS V14.01,2013-07-07 11:09:00,
2013-07-07 07:14:00,72.3,72.3,30.10,SW,235,0.0,0.0,100,0.00,,CLR,0.00,VWS V14.01,2013-07-07 11:14:00,
2013-07-07 07:19:00,72.6,72.6,30.10,SW,235,0.0,0.0,100,0.00,,CLR,0.00,VWS V14.01,2013-07-07 11:19:00,
2013-07-07 07:24:00,73.0,73.0,30.11,SW,235,0.0,0.0,100,0.00,,CLR,0.00,VWS V14.01,2013-07-07 11:24:00,
2013-07-07 07:29:00,73.3,73.3,30.11,SW,235,0.0,1.0,100,0.00,,CLR,0.00,VWS V14.01,2013-07-07 11:29:00,
2013-07-07 07:34:00,73.6,73.6,30.11,SW,233,0.0,0.0,100,0.00,,CLR,0.00,VWS V14.01,2013-07-07 11:34:00,
2013-07-07 07:39:00,73.9,73.9,30.11,SW,235,0.0,1.0,100,0.00,,CLR,0.00,VWS V14.01,2013-07-07 11:39:00,
2013-07-07 07:45:00,74.4,74.4,30.11,SW,235,0.0,1.0,100,0.00,,CLR,0.00,VWS V14.01,2013-07-07 11:45:00,
2013-07-07 07:50:00,75.1,75.1,30.11,SW,235,0.0,1.0,100,0.00,,CLR,0.00,VWS V14.01,2013-07-07 11:50:00,
2013-07-07 07:55:00,76.0,76.0,30.11,SW,221,0.0,1.0,100,0.00,,CLR,0.00,VWS V14.01,2013-07-07 11:55:00,
2013-07-07 08:00:00,76.9,76.9,30.11,SW,221,0.0,1.0,100,0.00,,CLR,0.00,VWS V14.01,2013-07-07 12:00:00,
2013-07-07 08:05:00,77.3,75.8,30.11,WSW,246,2.0,9.0,95,0.00,,CLR,0.00,VWS V14.01,2013-07-07 12:05:00,
2013-07-07 08:10:00,78.1,75.6,30.12,SW,236,0.0,9.0,92,0.00,,CLR,0.00,VWS V14.01,2013-07-07 12:10:00,
2013-07-07 08:15:00,78.6,74.8,30.11,West,267,0.0,9.0,88,0.00,,CLR,0.00,VWS V14.01,2013-07-07 12:15:00,
2013-07-07 08:20:00,79.1,74.9,30.12,WNW,289,0.0,9.0,87,0.00,,CLR,0.00,VWS V14.01,2013-07-07 12:20:00,
2013-07-07 08:25:00,79.5,74.6,30.12,WSW,253,6.0,9.0,85,0.00,,CLR,0.00,VWS V14.01,2013-07-07 12:25:00,
2013-07-07 08:30:00,79.8,75.2,30.11,SW,229,3.0,9.0,86,0.00,,CLR,0.00,VWS V14.01,2013-07-07 12:30:00,
2013-07-07 08:35:00,80.2,74.9,30.12,WSW,247,7.0,8.0,84,0.00,,CLR,0.00,VWS V14.01,2013-07-07 12:35:00,
2013-07-07 08:40:00,80.6,75.7,30.12,SW,217,0.0,8.0,85,0.00,,CLR,0.00,VWS V14.01,2013-07-07 12:40:00,
2013-07-07 08:45:00,81.2,75.9,30.12,SW,216,2.0,8.0,84,0.00,,CLR,0.00,VWS V14.01,2013-07-07 12:45:00,
2013-07-07 08:50:00,81.6,75.9,30.12,WSW,246,3.0,8.0,83,0.00,,CLR,0.00,VWS V14.01,2013-07-07 12:50:00,
2013-07-07 08:55:00,81.9,76.2,30.12,SSW,198,1.0,8.0,83,0.00,,CLR,0.00,VWS V14.01,2013-07-07 12:55:00,
2013-07-07 09:00:00,82.4,76.4,30.11,SSW,198,3.0,8.0,82,0.00,,CLR,0.00,VWS V14.01,2013-07-07 13:00:00,
2013-07-07 09:05:00,83.0,76.2,30.11,SSW,212,5.0,8.0,80,0.00,,CLR,0.00,VWS V14.01,2013-07-07 13:05:00,
2013-07-07 09:10:00,83.4,76.6,30.11,SSW,203,5.0,8.0,80,0.00,,CLR,0.00,VWS V14.01,2013-07-07 13:10:00,
2013-07-07 09:15:00,84.0,77.2,30.11,SW,235,3.0,8.0,80,0.00,,CLR,0.00,VWS V14.01,2013-07-07 13:15:00,
2013-07-07 09:20:00,84.2,77.0,30.11,WSW,245,6.0,8.0,79,0.00,,CLR,0.00,VWS V14.01,2013-07-07 13:20:00,
2013-07-07 09:25:00,84.2,77.4,30.11,SSW,197,3.0,8.0,80,0.00,,CLR,0.00,VWS V14.01,2013-07-07 13:25:00,
2013-07-07 09:30:00,84.8,77.6,30.11,SW,235,3.0,5.0,79,0.00,,CLR,0.00,VWS V14.01,2013-07-07 13:30:00,
2013-07-07 09:35:00,85.0,77.4,30.11,South,178,2.0,6.0,78,0.00,,CLR,0.00,VWS V14.01,2013-07-07 13:35:00,
2013-07-07 09:40:00,85.5,77.9,30.10,SSW,196,3.0,6.0,78,0.00,,CLR,0.00,VWS V14.01,2013-07-07 13:40:00,
2013-07-07 09:45:00,86.0,77.6,30.10,SSW,207,3.0,6.0,76,0.00,,CLR,0.00,VWS V14.01,2013-07-07 13:45:00,
2013-07-07 09:50:00,86.2,78.2,30.10,SW,228,0.0,6.0,77,0.00,,CLR,0.00,VWS V14.01,2013-07-07 13:50:00,
2013-07-07 09:55:00,86.9,78.0,30.10,SW,233,3.0,7.0,75,0.00,,CLR,0.00,VWS V14.01,2013-07-07 13:55:00,
2013-07-07 10:00:00,86.6,77.3,30.10,West,278,2.0,4.0,74,0.00,,CLR,0.00,VWS V14.01,2013-07-07 14:00:00,
2013-07-07 10:05:00,86.6,77.3,30.10,WSW,253,3.0,8.0,74,0.00,,CLR,0.00,VWS V14.01,2013-07-07 14:05:00,
2013-07-07 10:10:00,86.9,77.6,30.10,WNW,287,0.0,8.0,74,0.00,,CLR,0.00,VWS V14.01,2013-07-07 14:10:00,
2013-07-07 10:15:00,87.2,77.5,30.10,West,268,3.0,8.0,73,0.00,,CLR,0.00,VWS V14.01,2013-07-07 14:15:00,
2013-07-07 10:20:00,87.3,77.6,30.09,SSW,204,0.0,8.0,73,0.00,,CLR,0.00,VWS V14.01,2013-07-07 14:20:00,
2013-07-07 10:25:00,87.7,77.6,30.09,West,281,0.0,8.0,72,0.00,,CLR,0.00,VWS V14.01,2013-07-07 14:25:00,
2013-07-07 10:30:00,87.9,77.3,30.09,WSW,246,0.0,3.0,71,0.00,,CLR,0.00,VWS V14.01,2013-07-07 14:30:00,
2013-07-07 10:35:00,88.2,78.0,30.09,WSW,246,0.0,3.0,72,0.00,,CLR,0.00,VWS V14.01,2013-07-07 14:35:00,
2013-07-07 10:40:00,88.6,77.6,30.09,WSW,247,2.0,5.0,70,0.00,,CLR,0.00,VWS V14.01,2013-07-07 14:40:00,
2013-07-07 10:45:00,88.8,77.3,30.09,WSW,245,0.0,5.0,69,0.00,,CLR,0.00,VWS V14.01,2013-07-07 14:45:00,
2013-07-07 10:50:00,89.5,78.0,30.09,SSW,213,4.0,8.0,69,0.00,,CLR,0.00,VWS V14.01,2013-07-07 14:50:00,
2013-07-07 10:55:00,89.5,77.6,30.09,WSW,237,4.0,8.0,68,0.00,,CLR,0.00,VWS V14.01,2013-07-07 14:55:00,
2013-07-07 11:00:00,89.4,77.4,30.09,West,272,3.0,5.0,68,0.00,,CLR,0.00,VWS V14.01,2013-07-07 15:00:00,
2013-07-07 11:05:00,89.6,77.6,30.09,WSW,253,3.0,6.0,68,0.00,,CLR,0.00,VWS V14.01,2013-07-07 15:05:00,
2013-07-07 11:10:00,89.9,78.4,30.09,SSW,192,4.0,6.0,69,0.00,,CLR,0.00,VWS V14.01,2013-07-07 15:10:00,
2013-07-07 11:15:00,90.6,79.0,30.09,SW,217,5.0,7.0,69,0.00,,CLR,0.00,VWS V14.01,2013-07-07 15:15:00,
2013-07-07 11:21:00,90.9,79.3,30.09,SSW,211,5.0,7.0,69,0.00,,CLR,0.00,VWS V14.01,2013-07-07 15:21:00,
2013-07-07 11:26:00,91.2,79.2,30.09,SSW,200,3.0,9.0,68,0.00,,CLR,0.00,VWS V14.01,2013-07-07 15:26:00,
2013-07-07 11:31:00,91.2,78.7,30.09,SW,218,5.0,7.0,67,0.00,,CLR,0.00,VWS V14.01,2013-07-07 15:31:00,
2013-07-07 11:36:00,90.8,78.8,30.09,West,269,3.0,8.0,68,0.00,,CLR,0.00,VWS V14.01,2013-07-07 15:36:00,
2013-07-07 11:41:00,90.9,78.9,30.09,SW,219,4.0,8.0,68,0.00,,CLR,0.00,VWS V14.01,2013-07-07 15:41:00,
2013-07-07 11:46:00,91.2,78.7,30.09,SSW,210,6.0,8.0,67,0.00,,CLR,0.00,VWS V14.01,2013-07-07 15:46:00,
2013-07-07 11:51:00,91.1,78.2,30.09,SW,215,3.0,8.0,66,0.00,,CLR,0.00,VWS V14.01,2013-07-07 15:51:00,
2013-07-07 11:56:00,91.0,78.5,30.08,SSW,201,4.0,8.0,67,0.00,,CLR,0.00,VWS V14.01,2013-07-07 15:56:00,
2013-07-07 12:01:00,91.0,77.6,30.09,SW,234,3.0,8.0,65,0.00,,CLR,0.00,VWS V14.01,2013-07-07 16:01:00,
2013-07-07 12:06:00,91.3,77.9,30.08,SW,223,2.0,8.0,65,0.00,,CLR,0.00,VWS V14.01,2013-07-07 16:06:00,
2013-07-07 12:11:00,91.9,77.5,30.08,SSW,208,0.0,8.0,63,0.00,,CLR,0.00,VWS V14.01,2013-07-07 16:11:00,
2013-07-07 12:16:00,91.6,77.7,30.08,WSW,246,5.0,10.0,64,0.00,,CLR,0.00,VWS V14.01,2013-07-07 16:16:00,
2013-07-07 12:21:00,91.4,78.0,30.08,SW,225,3.0,10.0,65,0.00,,CLR,0.00,VWS V14.01,2013-07-07 16:21:00,
2013-07-07 12:26:00,91.3,77.9,30.08,SW,235,4.0,10.0,65,0.00,,CLR,0.00,VWS V14.01,2013-07-07 16:26:00,
2013-07-07 12:31:00,91.5,77.6,30.08,SW,230,4.0,7.0,64,0.00,,CLR,0.00,VWS V14.01,2013-07-07 16:31:00,
2013-07-07 12:36:00,91.6,78.2,30.08,SSW,195,4.0,8.0,65,0.00,,CLR,0.00,VWS V14.01,2013-07-07 16:36:00,
2013-07-07 12:41:00,91.8,78.4,30.08,WSW,250,2.0,8.0,65,0.00,,CLR,0.00,VWS V14.01,2013-07-07 16:41:00,
2013-07-07 12:46:00,91.8,78.8,30.08,SSW,210,4.0,8.0,66,0.00,,CLR,0.00,VWS V14.01,2013-07-07 16:46:00,
2013-07-07 12:51:00,92.5,78.1,30.08,SSW,208,4.0,10.0,63,0.00,,CLR,0.00,VWS V14.01,2013-07-07 16:51:00,
2013-07-07 12:56:00,92.7,77.8,30.07,South,174,3.0,10.0,62,0.00,,CLR,0.00,VWS V14.01,2013-07-07 16:56:00,
2013-07-07 13:01:00,93.0,77.6,30.07,SSW,208,6.0,8.0,61,0.00,,CLR,0.00,VWS V14.01,2013-07-07 17:01:00,
2013-07-07 13:06:00,93.6,77.6,30.07,South,188,3.0,8.0,60,0.00,,FEW041,0.00,VWS V14.01,2013-07-07 17:06:00,
2013-07-07 13:11:00,94.1,78.1,30.07,SW,220,0.0,8.0,60,0.00,,FEW041,0.00,VWS V14.01,2013-07-07 17:11:00,
2013-07-07 13:16:00,94.1,76.0,30.07,WSW,241,2.0,8.0,56,0.00,,FEW041,0.00,VWS V14.01,2013-07-07 17:16:00,
2013-07-07 13:21:00,94.0,75.9,30.06,SSW,208,0.0,8.0,56,0.00,,FEW041,0.00,VWS V14.01,2013-07-07 17:21:00,
2013-07-07 13:26:00,94.1,77.1,30.06,WSW,248,2.0,8.0,58,0.00,,FEW041,0.00,VWS V14.01,2013-07-07 17:26:00,
2013-07-07 13:31:00,94.2,77.2,30.06,WSW,240,1.0,8.0,58,0.00,,FEW041,0.00,VWS V14.01,2013-07-07 17:31:00,
2013-07-07 13:36:00,94.2,77.2,30.06,SW,227,9.0,9.0,58,0.00,,FEW041,0.00,VWS V14.01,2013-07-07 17:36:00,
2013-07-07 13:41:00,93.9,75.3,30.06,WSW,241,5.0,10.0,55,0.00,,FEW041,0.00,VWS V14.01,2013-07-07 17:41:00,
2013-07-07 13:46:00,93.6,76.1,30.06,SW,226,5.0,10.0,57,0.00,,FEW041,0.00,VWS V14.01,2013-07-07 17:46:00,
2013-07-07 13:51:00,94.0,76.5,30.05,SSW,193,0.0,10.0,57,0.00,,FEW041,0.00,VWS V14.01,2013-07-07 17:51:00,
2013-07-07 13:56:00,94.5,76.4,30.05,SW,214,4.0,10.0,56,0.00,,FEW041,0.00,VWS V14.01,2013-07-07 17:56:00,
2013-07-07 14:01:00,94.4,76.3,30.05,WSW,252,4.0,8.0,56,0.00,,FEW042,0.00,VWS V14.01,2013-07-07 18:01:00,
2013-07-07 14:06:00,94.5,76.4,30.05,West,271,4.0,8.0,56,0.00,,FEW042,0.00,VWS V14.01,2013-07-07 18:06:00,
2013-07-07 14:11:00,94.3,76.2,30.05,SW,220,7.0,12.0,56,0.00,,FEW042,0.00,VWS V14.01,2013-07-07 18:11:00,
2013-07-07 14:16:00,94.1,76.6,30.05,SW,216,2.0,12.0,57,0.00,,FEW042,0.00,VWS V14.01,2013-07-07 18:16:00,
2013-07-07 14:21:00,94.2,76.1,30.04,WSW,239,7.0,12.0,56,0.00,,FEW042,0.00,VWS V14.01,2013-07-07 18:21:00,
2013-07-07 14:27:00,94.0,77.0,30.04,West,262,0.0,12.0,58,0.00,,FEW042,0.00,VWS V14.01,2013-07-07 18:27:00,
2013-07-07 14:32:00,94.2,76.6,30.04,South,189,0.0,6.0,57,0.00,,FEW042,0.00,VWS V14.01,2013-07-07 18:32:00,
2013-07-07 14:37:00,94.2,75.6,30.04,WSW,253,3.0,9.0,55,0.00,,FEW042,0.00,VWS V14.01,2013-07-07 18:37:00,
2013-07-07 14:42:00,94.1,76.6,30.04,SSW,204,3.0,9.0,57,0.00,,FEW042,0.00,VWS V14.01,2013-07-07 18:42:00,
2013-07-07 14:47:00,94.2,76.1,30.03,SSW,213,6.0,9.0,56,0.00,,FEW042,0.00,VWS V14.01,2013-07-07 18:47:00,
2013-07-07 14:52:00,94.6,77.0,30.03,WSW,246,3.0,9.0,57,0.00,,FEW042,0.00,VWS V14.01,2013-07-07 18:52:00,
2013-07-07 14:57:00,94.6,77.0,30.03,SW,222,6.0,9.0,57,0.00,,FEW042,0.00,VWS V14.01,2013-07-07 18:57:00,
2013-07-07 15:02:00,94.7,76.6,30.03,WSW,252,4.0,10.0,56,0.00,,CLR,0.00,VWS V14.01,2013-07-07 19:02:00,
2013-07-07 15:07:00,94.1,76.6,30.03,WSW,256,2.0,11.0,57,0.00,,CLR,0.00,VWS V14.01,2013-07-07 19:07:00,
2013-07-07 15:12:00,93.9,75.8,30.03,SW,220,8.0,11.0,56,0.00,,CLR,0.00,VWS V14.01,2013-07-07 19:12:00,
2013-07-07 15:17:00,93.9,76.4,30.03,WSW,240,5.0,11.0,57,0.00,,CLR,0.00,VWS V14.01,2013-07-07 19:17:00,
2013-07-07 15:22:00,93.7,76.7,30.03,West,266,6.0,11.0,58,0.00,,CLR,0.00,VWS V14.01,2013-07-07 19:22:00,
2013-07-07 15:27:00,93.2,76.8,30.03,SW,225,4.0,11.0,59,0.00,,CLR,0.00,VWS V14.01,2013-07-07 19:27:00,
2013-07-07 15:32:00,92.9,76.5,30.02,WSW,257,3.0,9.0,59,0.00,,CLR,0.00,VWS V14.01,2013-07-07 19:32:00,
2013-07-07 15:37:00,92.3,76.9,30.02,WSW,255,5.0,10.0,61,0.00,,CLR,0.00,VWS V14.01,2013-07-07 19:37:00,
2013-07-07 15:42:00,92.1,76.7,30.02,SW,225,7.0,10.0,61,0.00,,CLR,0.00,VWS V14.01,2013-07-07 19:42:00,
2013-07-07 15:47:00,92.0,77.1,30.02,SW,229,4.0,12.0,62,0.00,,CLR,0.00,VWS V14.01,2013-07-07 19:47:00,
2013-07-07 15:52:00,92.3,77.4,30.01,SSW,210,10.0,12.0,62,0.00,,CLR,0.00,VWS V14.01,2013-07-07 19:52:00,
2013-07-07 15:57:00,92.4,76.0,30.01,WSW,245,5.0,12.0,59,0.00,,CLR,0.00,VWS V14.01,2013-07-07 19:57:00,
2013-07-07 16:02:00,92.6,76.7,30.01,WSW,252,7.0,8.0,60,0.00,,CLR,0.00,VWS V14.01,2013-07-07 20:02:00,
2013-07-07 16:07:00,92.5,77.6,30.01,WSW,254,7.0,12.0,62,0.00,,FEW060,0.00,VWS V14.01,2013-07-07 20:07:00,
2013-07-07 16:12:00,92.3,76.4,30.01,WSW,237,10.0,12.0,60,0.00,,FEW060,0.00,VWS V14.01,2013-07-07 20:12:00,
2013-07-07 16:17:00,92.7,76.8,30.01,SW,227,4.0,12.0,60,0.00,,FEW060,0.00,VWS V14.01,2013-07-07 20:17:00,
2013-07-07 16:22:00,93.0,76.1,30.01,West,259,6.0,12.0,58,0.00,,FEW060,0.00,VWS V14.01,2013-07-07 20:22:00,
2013-07-07 16:27:00,93.0,76.1,30.01,WSW,242,3.0,12.0,58,0.00,,FEW060,0.00,VWS V14.01,2013-07-07 20:27:00,
2013-07-07 16:32:00,93.0,76.6,30.01,WSW,240,5.0,9.0,59,0.00,,FEW060,0.00,VWS V14.01,2013-07-07 20:32:00,
2013-07-07 16:37:00,93.0,76.6,30.01,SW,228,4.0,9.0,59,0.00,,FEW060,0.00,VWS V14.01,2013-07-07 20:37:00,
2013-07-07 16:42:00,93.4,76.4,30.01,WSW,241,4.0,9.0,58,0.00,,FEW060,0.00,VWS V14.01,2013-07-07 20:42:00,
2013-07-07 16:47:00,93.5,76.5,30.01,WSW,258,4.0,9.0,58,0.00,,FEW060,0.00,VWS V14.01,2013-07-07 20:47:00,
2013-07-07 16:52:00,93.5,76.0,30.02,SW,222,5.0,10.0,57,0.00,,FEW060,0.00,VWS V14.01,2013-07-07 20:52:00,
2013-07-07 16:57:00,93.2,75.7,30.02,WSW,258,7.0,12.0,57,0.00,,FEW060,0.00,VWS V14.01,2013-07-07 20:57:00,
2013-07-07 17:02:00,93.0,75.5,30.02,SW,225,7.0,14.0,57,0.00,,,0.00,VWS V14.01,2013-07-07 21:02:00,
2013-07-07 17:07:00,92.3,75.4,30.02,WSW,241,6.0,14.0,58,0.00,,,0.00,VWS V14.01,2013-07-07 21:07:00,
2013-07-07 17:12:00,90.4,73.1,30.06,WSW,243,26.0,35.0,57,0.00,,,0.00,VWS V14.01,2013-07-07 21:12:00,
2013-07-07 17:17:00,86.4,71.4,30.06,SW,235,9.0,40.0,61,0.00,,,0.00,VWS V14.01,2013-07-07 21:17:00,
2013-07-07 17:22:00,83.9,70.9,30.07,WSW,253,8.0,40.0,65,0.00,,,0.00,VWS V14.01,2013-07-07 21:22:00,
2013-07-07 17:27:00,82.1,70.9,30.08,West,267,11.0,40.0,69,0.00,,,0.00,VWS V14.01,2013-07-07 21:27:00,
2013-07-07 17:32:00,80.3,70.9,30.07,West,263,1.0,10.0,73,0.00,,-RA,0.00,VWS V14.01,2013-07-07 21:32:00,
2013-07-07 17:37:00,79.1,70.9,30.06,West,276,4.0,10.0,76,0.00,,-RA,0.00,VWS V14.01,2013-07-07 21:37:00,
2013-07-07 17:42:00,77.8,70.8,30.06,WSW,249,4.0,10.0,79,0.00,,-RA,0.00,VWS V14.01,2013-07-07 21:42:00,
2013-07-07 17:47:00,77.0,70.7,30.07,West,267,3.0,10.0,81,0.00,,-RA,0.00,VWS V14.01,2013-07-07 21:47:00,
2013-07-07 17:52:00,76.3,70.4,30.07,SW,235,9.0,10.0,82,0.00,,-RA,0.00,VWS V14.01,2013-07-07 21:52:00,
2013-07-07 17:57:00,75.9,70.0,30.07,WSW,251,2.0,10.0,82,0.00,,-RA,0.00,VWS V14.01,2013-07-07 21:57:00,
2013-07-07 18:02:00,75.4,69.9,30.07,SW,235,5.0,8.0,83,0.00,,-RA,0.00,VWS V14.01,2013-07-07 22:02:00,
2013-07-07 18:07:00,75.1,69.6,30.06,SW,225,1.0,8.0,83,0.00,,-RA,0.00,VWS V14.01,2013-07-07 22:07:00,
2013-07-07 18:12:00,74.9,69.0,30.06,SW,231,3.0,8.0,82,0.00,,-RA,0.00,VWS V14.01,2013-07-07 22:12:00,
2013-07-07 18:17:00,74.7,68.5,30.05,SSW,205,3.0,8.0,81,0.00,,-RA,0.00,VWS V14.01,2013-07-07 22:17:00,
2013-07-07 18:23:00,74.6,68.8,30.04,SSW,202,0.0,8.0,82,0.00,,-RA,0.00,VWS V14.01,2013-07-07 22:23:00,
2013-07-07 18:28:00,74.4,68.6,30.04,SSW,202,0.0,8.0,82,0.00,,-RA,0.00,VWS V14.01,2013-07-07 22:28:00,
2013-07-07 18:33:00,74.3,68.4,30.04,SSW,202,0.0,0.0,82,0.00,,-RA,0.00,VWS V14.01,2013-07-07 22:33:00,
2013-07-07 18:37:00,74.1,69.0,30.05,SW,214,4.0,5.0,84,0.00,,-RA,0.00,VWS V14.01,2013-07-07 22:37:00,
2013-07-07 18:42:00,73.8,69.0,30.06,West,269,0.0,5.0,85,0.00,,-RA,0.00,VWS V14.01,2013-07-07 22:42:00,
2013-07-07 18:48:00,73.6,69.2,30.06,WSW,258,0.0,5.0,86,0.00,,-RA,0.00,VWS V14.01,2013-07-07 22:48:00,
2013-07-07 18:53:00,73.5,69.1,30.06,SSW,195,0.0,5.0,86,0.00,,-RA,0.00,VWS V14.01,2013-07-07 22:53:00,
2013-07-07 18:58:00,73.4,69.0,30.06,SW,231,0.0,5.0,86,0.00,,-RA,0.00,VWS V14.01,2013-07-07 22:58:00,
2013-07-07 19:03:00,73.4,69.0,30.05,SW,231,0.0,0.0,86,0.00,,RA,0.00,VWS V14.01,2013-07-07 23:03:00,
2013-07-07 19:08:00,73.4,69.0,30.05,SW,231,0.0,0.0,86,0.00,,RA,0.00,VWS V14.01,2013-07-07 23:08:00,
2013-07-07 19:13:00,73.3,68.9,30.04,WSW,254,0.0,1.0,86,0.00,,RA,0.00,VWS V14.01,2013-07-07 23:13:00,
2013-07-07 19:18:00,73.2,68.8,30.03,WSW,254,0.0,1.0,86,0.00,,RA,0.00,VWS V14.01,2013-07-07 23:18:00,
2013-07-07 19:23:00,73.1,68.7,30.03,WNW,300,0.0,2.0,86,0.00,,RA,0.00,VWS V14.01,2013-07-07 23:23:00,
2013-07-07 19:28:00,72.9,68.5,30.04,West,274,1.0,2.0,86,0.00,,RA,0.00,VWS V14.01,2013-07-07 23:28:00,
2013-07-07 19:33:00,72.9,68.1,30.04,WSW,247,4.0,4.0,85,0.00,,RA,0.00,VWS V14.01,2013-07-07 23:33:00,
2013-07-07 19:38:00,72.8,68.4,30.04,WSW,257,0.0,5.0,86,0.01,,RA,0.01,VWS V14.01,2013-07-07 23:38:00,
2013-07-07 19:43:00,72.6,68.5,30.05,WSW,257,2.0,8.0,87,0.01,,RA,0.01,VWS V14.01,2013-07-07 23:43:00,
2013-07-07 19:48:00,72.5,68.8,30.05,WSW,256,0.0,8.0,88,0.01,,RA,0.01,VWS V14.01,2013-07-07 23:48:00,
2013-07-07 19:53:00,72.3,68.9,30.05,WSW,237,1.0,8.0,89,0.01,,RA,0.01,VWS V14.01,2013-07-07 23:53:00,
2013-07-07 19:58:00,72.1,69.0,30.04,WSW,246,0.0,8.0,90,0.01,,RA,0.01,VWS V14.01,2013-07-07 23:58:00,
2013-07-07 20:03:00,72.0,68.9,30.04,WSW,247,0.0,1.0,90,0.01,,FEW010,0.01,VWS V14.01,2013-07-08 00:03:00,
2013-07-07 20:08:00,71.8,68.7,30.03,WSW,248,0.0,2.0,90,0.01,,FEW010,0.01,VWS V14.01,2013-07-08 00:08:00,
2013-07-07 20:13:00,71.7,68.6,30.03,North,349,0.0,3.0,90,0.01,,FEW010,0.01,VWS V14.01,2013-07-08 00:13:00,
2013-07-07 20:18:00,71.5,68.7,30.03,NW,307,0.0,3.0,91,0.01,,FEW010,0.01,VWS V14.01,2013-07-08 00:18:00,
2013-07-07 20:23:00,71.3,68.5,30.03,NW,307,0.0,3.0,91,0.01,,FEW010,0.01,VWS V14.01,2013-07-08 00:23:00,
2013-07-07 20:28:00,71.2,68.8,30.04,WNW,290,0.0,3.0,92,0.01,,FEW010,0.01,VWS V14.01,2013-07-08 00:28:00,
2013-07-07 20:33:00,71.1,69.0,30.04,WSW,247,3.0,4.0,93,0.01,,FEW010,0.01,VWS V14.01,2013-07-08 00:33:00,
2013-07-07 20:38:00,71.0,68.9,30.04,WSW,244,4.0,6.0,93,0.01,,FEW010,0.01,VWS V14.01,2013-07-08 00:38:00,
2013-07-07 20:43:00,71.0,68.9,30.04,WSW,243,0.0,6.0,93,0.01,,FEW010,0.01,VWS V14.01,2013-07-08 00:43:00,
2013-07-07 20:48:00,70.9,68.8,30.05,West,262,0.0,6.0,93,0.01,,FEW010,0.01,VWS V14.01,2013-07-08 00:48:00,
2013-07-07 20:53:00,70.9,68.8,30.05,SW,220,0.0,6.0,93,0.01,,FEW010,0.01,VWS V14.01,2013-07-08 00:53:00,
2013-07-07 20:58:00,70.8,68.7,30.05,SW,218,4.0,6.0,93,0.01,,FEW010,0.01,VWS V14.01,2013-07-08 00:58:00,
2013-07-07 21:03:00,70.8,68.7,30.05,WSW,252,0.0,6.0,93,0.00,,FEW010,0.01,VWS V14.01,2013-07-08 01:03:00,
2013-07-07 21:08:00,70.8,68.7,30.06,WSW,257,3.0,7.0,93,0.00,,FEW010,0.01,VWS V14.01,2013-07-08 01:08:00,
2013-07-07 21:13:00,70.7,68.6,30.07,WSW,242,0.0,7.0,93,0.00,,FEW010,0.01,VWS V14.01,2013-07-08 01:13:00,
2013-07-07 21:18:00,70.7,68.6,30.07,SSW,207,3.0,7.0,93,0.00,,FEW010,0.01,VWS V14.01,2013-07-08 01:18:00,
2013-07-07 21:23:00,70.6,68.5,30.07,SSW,207,1.0,7.0,93,0.00,,FEW010,0.01,VWS V14.01,2013-07-08 01:23:00,
2013-07-07 21:28:00,70.6,68.5,30.07,SW,235,3.0,7.0,93,0.00,,FEW010,0.00,VWS V14.01,2013-07-08 01:28:00,
2013-07-07 21:33:00,70.6,68.5,30.07,West,264,5.0,6.0,93,0.00,,FEW010,0.01,VWS V14.01,2013-07-08 01:33:00,
2013-07-07 21:39:00,70.5,68.4,30.07,West,260,3.0,6.0,93,0.00,,FEW010,0.01,VWS V14.01,2013-07-08 01:39:00,
2013-07-07 21:44:00,70.5,68.4,30.07,WSW,254,5.0,6.0,93,0.00,,FEW010,0.01,VWS V14.01,2013-07-08 01:44:00,
2013-07-07 21:49:00,70.4,68.6,30.07,WSW,241,0.0,9.0,94,0.00,,FEW010,0.01,VWS V14.01,2013-07-08 01:49:00,
2013-07-07 21:54:00,70.4,68.6,30.07,SW,232,3.0,9.0,94,0.00,,FEW010,0.01,VWS V14.01,2013-07-08 01:54:00,
2013-07-07 21:59:00,70.4,68.6,30.07,WSW,254,4.0,9.0,94,0.00,,FEW010,0.01,VWS V14.01,2013-07-08 01:59:00,
2013-07-07 22:04:00,70.3,68.5,30.08,WSW,252,5.0,8.0,94,0.00,,FEW008,0.01,VWS V14.01,2013-07-08 02:04:00,
2013-07-07 22:09:00,70.3,68.5,30.08,WSW,246,4.0,8.0,94,0.00,,FEW008,0.01,VWS V14.01,2013-07-08 02:09:00,
2013-07-07 22:14:00,70.2,68.4,30.08,SW,235,7.0,10.0,94,0.00,,FEW008,0.01,VWS V14.01,2013-07-08 02:14:00,
2013-07-07 22:19:00,70.2,68.4,30.07,West,265,0.0,10.0,94,0.00,,FEW008,0.01,VWS V14.01,2013-07-08 02:19:00,
2013-07-07 22:24:00,70.1,68.3,30.08,WSW,247,4.0,10.0,94,0.00,,FEW008,0.01,VWS V14.01,2013-07-08 02:24:00,
2013-07-07 22:29:00,70.1,68.3,30.08,West,267,0.0,10.0,94,0.00,,FEW008,0.00,VWS V14.01,2013-07-08 02:29:00,
2013-07-07 22:34:00,70.0,68.2,30.08,West,260,0.0,4.0,94,0.00,,FEW008,0.01,VWS V14.01,2013-07-08 02:34:00,
2013-07-07 22:39:00,70.0,68.2,30.08,SW,221,5.0,6.0,94,0.00,,FEW008,0.00,VWS V14.01,2013-07-08 02:39:00,
2013-07-07 22:44:00,69.9,68.1,30.08,SW,235,0.0,6.0,94,0.00,,FEW008,0.01,VWS V14.01,2013-07-08 02:44:00,
2013-07-07 22:49:00,69.9,68.1,30.08,WSW,255,2.0,6.0,94,0.00,,FEW008,0.01,VWS V14.01,2013-07-08 02:49:00,
2013-07-07 22:54:00,69.8,68.3,30.08,WSW,256,2.0,6.0,95,0.00,,FEW008,0.01,VWS V14.01,2013-07-08 02:54:00,
2013-07-07 22:59:00,69.8,68.3,30.09,West,261,0.0,6.0,95,0.00,,FEW008,0.01,VWS V14.01,2013-07-08 02:59:00,
2013-07-07 23:04:00,69.8,68.3,30.09,West,264,2.0,6.0,95,0.00,,CLR,0.01,VWS V14.01,2013-07-08 03:04:00,
2013-07-07 23:09:00,69.8,68.3,30.09,WSW,249,4.0,6.0,95,0.00,,CLR,0.01,VWS V14.01,2013-07-08 03:09:00,
2013-07-07 23:14:00,69.8,68.3,30.09,WSW,246,5.0,6.0,95,0.00,,CLR,0.01,VWS V14.01,2013-07-08 03:14:00,
2013-07-07 23:19:00,69.9,68.4,30.09,WSW,253,4.0,6.0,95,0.00,,CLR,0.01,VWS V14.01,2013-07-08 03:19:00,
2013-07-07 23:24:00,69.8,68.3,30.09,WSW,257,3.0,8.0,95,0.00,,CLR,0.01,VWS V14.01,2013-07-08 03:24:00,
2013-07-07 23:29:00,69.8,68.3,30.09,West,275,0.0,8.0,95,0.00,,CLR,0.01,VWS V14.01,2013-07-08 03:29:00,
2013-07-07 23:34:00,69.7,68.2,30.09,West,274,2.0,5.0,95,0.00,,CLR,0.01,VWS V14.01,2013-07-08 03:34:00,
2013-07-07 23:39:00,69.7,68.2,30.09,SW,231,3.0,5.0,95,0.00,,CLR,0.01,VWS V14.01,2013-07-08 03:39:00,
2013-07-07 23:44:00,69.7,68.2,30.09,SW,233,4.0,6.0,95,0.00,,CLR,0.01,VWS V14.01,2013-07-08 03:44:00,
2013-07-07 23:49:00,69.7,68.2,30.09,SSW,194,2.0,6.0,95,0.00,,CLR,0.01,VWS V14.01,2013-07-08 03:49:00,
2013-07-07 23:54:00,69.7,68.2,30.09,WSW,257,5.0,6.0,95,0.00,,CLR,0.01,VWS V14.01,2013-07-08 03:54:00,
2013-07-07 23:59:00,69.6,68.1,30.09,SW,222,2.0,6.0,95,0.00,,CLR,0.00,VWS V14.01,2013-07-08 03:59:00,